Time;durP1;ratioP1;P1;durP2;ratioP2;P2;SDS_P1;SDS_P2;PMS_P1;PMS_P2;Temp;Humidity;BMP_temperature;BMP_pressure;BME280_temperature;BME280_humidity;BME280_pressure;Samples;Min_cycle;Max_cycle;Signal;HPM_P1;HPM_P2
2021/01/22 00:01:18;;;;;;;32.83;13.57;;;;;;;;;;5089256;28;20189;-74
2021/01/22 00:04:24;;;;;;;30.07;13.80;;;;;;;;;;5102828;28;20250;-74
2021/01/22 00:07:29;;;;;;;29.80;13.27;;;;;;;;;;5093223;28;20200;-74
2021/01/22 00:10:34;;;;;;;31.17;13.77;;;;;;;;;;5093798;28;20317;-74
2021/01/22 00:13:39;;;;;;;28.80;13.00;;;;;;;;;;5093750;28;20206;-74
2021/01/22 00:16:43;;;;;;;29.03;13.30;;;;;;;;;;5090913;28;20208;-73
2021/01/22 00:19:48;;;;;;;35.13;13.93;;;;;;;;;;5082737;28;20193;-75
2021/01/22 00:22:53;;;;;;;33.20;12.57;;;;;;;;;;5095413;28;20324;-73
2021/01/22 00:25:58;;;;;;;29.13;12.77;;;;;;;;;;5097552;28;20240;-75
2021/01/22 00:29:02;;;;;;;33.40;13.63;;;;;;;;;;5101145;28;20222;-75
2021/01/22 00:32:07;;;;;;;34.07;13.30;;;;;;;;;;5089465;28;20243;-74
2021/01/22 00:35:12;;;;;;;29.43;12.93;;;;;;;;;;5089816;28;20213;-75
2021/01/22 00:38:18;;;;;;;27.80;12.70;;;;;;;;;;5090075;28;20202;-75
2021/01/22 00:41:23;;;;;;;25.73;12.33;;;;;;;;;;5082647;28;20209;-75
2021/01/22 00:44:28;;;;;;;27.73;12.80;;;;;;;;;;5100738;28;20201;-73
2021/01/22 00:47:33;;;;;;;31.53;13.60;;;;;;;;;;5089785;28;20229;-73
2021/01/22 00:50:38;;;;;;;35.67;14.33;;;;;;;;;;5089461;28;20225;-73
2021/01/22 00:53:43;;;;;;;29.47;13.33;;;;;;;;;;5098054;28;20201;-75
2021/01/22 00:56:49;;;;;;;27.37;13.23;;;;;;;;;;5089737;28;20205;-75
2021/01/22 00:59:53;;;;;;;33.63;14.37;;;;;;;;;;5089009;28;20255;-75
2021/01/22 01:02:58;;;;;;;29.90;12.33;;;;;;;;;;5091588;28;20228;-75
2021/01/22 01:06:03;;;;;;;29.73;13.23;;;;;;;;;;5090165;28;20213;-75
2021/01/22 01:09:09;;;;;;;30.13;13.40;;;;;;;;;;5090625;28;20986;-76
2021/01/22 01:12:25;;;;;;;26.87;12.80;;;;;;;;;;5099403;28;20224;-75
2021/01/22 01:16:06;;;;;;;31.57;13.67;;;;;;;;;;5110164;28;20616;-73
2021/01/22 01:19:10;;;;;;;30.67;12.40;;;;;;;;;;5097752;28;20295;-73
2021/01/22 01:22:15;;;;;;;30.57;13.23;;;;;;;;;;5082325;28;20317;-73
2021/01/22 01:25:19;;;;;;;32.40;13.10;;;;;;;;;;5109766;28;20584;-75
2021/01/22 01:28:25;;;;;;;30.20;12.43;;;;;;;;;;5098035;28;20259;-76
2021/01/22 01:31:29;;;;;;;33.43;12.73;;;;;;;;;;5099901;28;20301;-75
2021/01/22 01:34:34;;;;;;;38.60;14.40;;;;;;;;;;5081969;28;20319;-75
2021/01/22 01:37:39;;;;;;;31.50;12.67;;;;;;;;;;5096672;28;20319;-75
2021/01/22 01:40:44;;;;;;;30.93;13.47;;;;;;;;;;5080120;28;20205;-75
2021/01/22 01:43:49;;;;;;;35.90;13.33;;;;;;;;;;5096637;28;20201;-75
2021/01/22 01:46:54;;;;;;;33.20;12.57;;;;;;;;;;5084657;28;20213;-75
2021/01/22 01:49:58;;;;;;;31.73;13.30;;;;;;;;;;5084213;28;20309;-75
2021/01/22 01:53:04;;;;;;;33.37;12.80;;;;;;;;;;5095299;28;20313;-76
2021/01/22 01:56:08;;;;;;;28.97;12.43;;;;;;;;;;5084066;28;20236;-75
2021/01/22 01:59:15;;;;;;;33.30;13.47;;;;;;;;;;5108268;28;20204;-76
2021/01/22 02:02:20;;;;;;;34.20;13.53;;;;;;;;;;5095796;28;20217;-75
2021/01/22 02:05:25;;;;;;;34.83;13.70;;;;;;;;;;5096289;28;20250;-76
2021/01/22 02:08:29;;;;;;;33.47;13.40;;;;;;;;;;5082418;28;20584;-75
2021/01/22 02:11:34;;;;;;;29.97;12.77;;;;;;;;;;5090775;28;20240;-76
2021/01/22 02:14:39;;;;;;;33.63;13.90;;;;;;;;;;5091073;28;20673;-75
2021/01/22 02:17:45;;;;;;;40.03;14.30;;;;;;;;;;5094074;28;20558;-75
2021/01/22 02:21:05;;;;;;;34.53;14.53;;;;;;;;;;5089270;28;20196;-75
2021/01/22 02:24:14;;;;;;;35.77;14.70;;;;;;;;;;5110212;28;20676;-75
2021/01/22 02:27:20;;;;;;;27.73;12.87;;;;;;;;;;5089424;28;20204;-75
2021/01/22 02:30:25;;;;;;;32.00;12.40;;;;;;;;;;5093489;28;20248;-75
2021/01/22 02:33:30;;;;;;;30.33;13.37;;;;;;;;;;5090805;28;20278;-75
2021/01/22 02:36:37;;;;;;;32.10;13.70;;;;;;;;;;5092310;28;20302;-75
2021/01/22 02:39:44;;;;;;;31.30;13.77;;;;;;;;;;5085391;28;20368;-75
2021/01/22 02:42:50;;;;;;;33.57;13.60;;;;;;;;;;5083928;28;20229;-75
2021/01/22 02:45:55;;;;;;;31.20;13.57;;;;;;;;;;5085489;28;20256;-75
2021/01/22 02:49:00;;;;;;;30.30;12.97;;;;;;;;;;5092121;28;20585;-75
2021/01/22 02:52:05;;;;;;;30.70;12.90;;;;;;;;;;5085389;28;20228;-75
2021/01/22 02:55:10;;;;;;;34.83;13.73;;;;;;;;;;5087818;28;20722;-75
2021/01/22 02:58:21;;;;;;;34.90;13.47;;;;;;;;;;5106382;28;20211;-75
2021/01/22 03:01:28;;;;;;;34.83;14.67;;;;;;;;;;5092357;28;20217;-75
2021/01/22 03:04:35;;;;;;;34.87;14.53;;;;;;;;;;5088452;28;20699;-72
2021/01/22 03:07:43;;;;;;;33.67;13.60;;;;;;;;;;5089945;28;20273;-72
2021/01/22 03:10:48;;;;;;;30.57;12.70;;;;;;;;;;5087458;28;20236;-73
2021/01/22 03:13:54;;;;;;;28.23;13.00;;;;;;;;;;5087039;28;20282;-73
2021/01/22 03:17:01;;;;;;;30.47;12.87;;;;;;;;;;5088965;28;20297;-73
2021/01/22 03:20:06;;;;;;;33.17;12.90;;;;;;;;;;5089883;28;20580;-73
2021/01/22 03:23:10;;;;;;;30.23;12.90;;;;;;;;;;5102331;28;20241;-73
2021/01/22 03:26:15;;;;;;;35.63;13.63;;;;;;;;;;5089585;28;20722;-73
2021/01/22 03:29:21;;;;;;;32.63;13.90;;;;;;;;;;5087700;28;20310;-73
2021/01/22 03:32:25;;;;;;;29.97;11.47;;;;;;;;;;5090865;28;20247;-73
2021/01/22 03:35:30;;;;;;;31.87;14.97;;;;;;;;;;5086514;28;20248;-75
2021/01/22 03:38:35;;;;;;;32.13;12.57;;;;;;;;;;5099947;28;20282;-75
2021/01/22 03:41:39;;;;;;;29.40;12.53;;;;;;;;;;5101514;28;20233;-73
2021/01/22 03:44:45;;;;;;;28.20;12.03;;;;;;;;;;5106140;28;20631;-74
2021/01/22 03:47:50;;;;;;;32.67;13.20;;;;;;;;;;5089631;28;20212;-73
2021/01/22 03:50:55;;;;;;;30.67;12.70;;;;;;;;;;5093694;28;20270;-73
2021/01/22 03:53:59;;;;;;;30.90;12.57;;;;;;;;;;5089410;28;20201;-73
2021/01/22 03:57:04;;;;;;;30.97;12.13;;;;;;;;;;5093509;28;20201;-73
2021/01/22 04:00:10;;;;;;;31.23;13.00;;;;;;;;;;5089910;28;20243;-73
2021/01/22 04:03:15;;;;;;;30.00;12.67;;;;;;;;;;5083150;28;20232;-73
2021/01/22 04:06:20;;;;;;;30.90;13.27;;;;;;;;;;5091677;28;20217;-73
2021/01/22 04:09:24;;;;;;;28.97;12.60;;;;;;;;;;5093437;28;20253;-72
2021/01/22 04:12:29;;;;;;;28.37;13.03;;;;;;;;;;5091513;28;20229;-73
2021/01/22 04:15:34;;;;;;;33.60;13.00;;;;;;;;;;5091016;27;20255;-74
2021/01/22 04:18:38;;;;;;;26.53;11.90;;;;;;;;;;5092034;28;20209;-75
2021/01/22 04:21:43;;;;;;;27.53;12.20;;;;;;;;;;5083033;28;20221;-75
2021/01/22 04:24:48;;;;;;;26.80;10.97;;;;;;;;;;5094843;28;20279;-75
2021/01/22 04:27:53;;;;;;;30.23;12.03;;;;;;;;;;5097458;28;20209;-75
2021/01/22 04:30:58;;;;;;;27.80;11.77;;;;;;;;;;5085654;28;20229;-75
2021/01/22 04:34:02;;;;;;;29.50;11.37;;;;;;;;;;5086374;28;20287;-75
2021/01/22 04:37:07;;;;;;;26.80;12.10;;;;;;;;;;5097453;28;20738;-75
2021/01/22 04:40:13;;;;;;;26.20;11.83;;;;;;;;;;5086479;28;20201;-75
2021/01/22 04:43:17;;;;;;;30.43;12.30;;;;;;;;;;5102140;28;20287;-75
2021/01/22 04:46:23;;;;;;;27.50;11.23;;;;;;;;;;5105507;28;20232;-75
2021/01/22 04:49:27;;;;;;;29.53;12.50;;;;;;;;;;5106922;28;20251;-75
2021/01/22 04:52:32;;;;;;;28.60;12.23;;;;;;;;;;5090853;28;20639;-75
2021/01/22 04:55:38;;;;;;;29.63;12.13;;;;;;;;;;5088474;28;20244;-75
2021/01/22 04:58:43;;;;;;;30.47;11.73;;;;;;;;;;5084403;28;20267;-75
2021/01/22 05:01:49;;;;;;;27.97;12.10;;;;;;;;;;5109995;28;20235;-75
2021/01/22 05:04:56;;;;;;;32.03;11.57;;;;;;;;;;5083984;28;20293;-75
2021/01/22 05:08:02;;;;;;;25.03;11.30;;;;;;;;;;5081075;28;20747;-75
2021/01/22 05:11:06;;;;;;;29.20;11.17;;;;;;;;;;5099787;28;20784;-75
2021/01/22 05:14:11;;;;;;;27.03;11.60;;;;;;;;;;5096414;28;20697;-75
2021/01/22 05:17:16;;;;;;;27.10;11.20;;;;;;;;;;5096761;28;20205;-75
2021/01/22 05:20:27;;;;;;;24.07;11.07;;;;;;;;;;5084565;28;20198;-75
2021/01/22 05:23:33;;;;;;;31.20;12.37;;;;;;;;;;5080796;28;20352;-75
2021/01/22 05:26:37;;;;;;;30.13;12.30;;;;;;;;;;5096473;28;20738;-76
2021/01/22 05:29:42;;;;;;;35.53;13.43;;;;;;;;;;5084275;28;20271;-76
2021/01/22 05:32:48;;;;;;;29.67;12.13;;;;;;;;;;5080791;28;20298;-75
2021/01/22 05:35:53;;;;;;;32.50;12.97;;;;;;;;;;5091594;28;20258;-76
2021/01/22 05:38:58;;;;;;;33.30;11.67;;;;;;;;;;5084718;28;20307;-75
2021/01/22 05:42:02;;;;;;;32.37;12.13;;;;;;;;;;5082859;28;20233;-75
2021/01/22 05:45:07;;;;;;;26.97;11.40;;;;;;;;;;5081171;28;20302;-75
2021/01/22 05:48:23;;;;;;;28.60;12.40;;;;;;;;;;5080006;28;20248;-75
2021/01/22 05:51:32;;;;;;;32.17;11.80;;;;;;;;;;5099577;28;20236;-75
2021/01/22 05:54:38;;;;;;;29.20;11.10;;;;;;;;;;5099221;28;20209;-76
2021/01/22 05:57:42;;;;;;;30.97;12.50;;;;;;;;;;5079966;28;20975;-74
2021/01/22 06:01:03;;;;;;;32.37;13.57;;;;;;;;;;5086685;28;20217;-74
2021/01/22 06:04:08;;;;;;;32.53;12.63;;;;;;;;;;5081392;28;20240;-74
2021/01/22 06:07:14;;;;;;;35.93;12.37;;;;;;;;;;5113848;28;20212;-74
2021/01/22 06:10:22;;;;;;;30.90;11.37;;;;;;;;;;5096377;28;20236;-74
2021/01/22 06:13:27;;;;;;;31.00;12.40;;;;;;;;;;5088692;28;20283;-74
2021/01/22 06:16:32;;;;;;;33.50;12.30;;;;;;;;;;5099645;28;20193;-74
2021/01/22 06:19:40;;;;;;;34.23;13.33;;;;;;;;;;5095138;28;20259;-75
2021/01/22 06:22:51;;;;;;;39.93;13.43;;;;;;;;;;5093368;28;20221;-76
2021/01/22 06:25:56;;;;;;;30.90;13.07;;;;;;;;;;5088982;28;20670;-75
2021/01/22 06:29:02;;;;;;;30.53;12.50;;;;;;;;;;5087018;28;20201;-75
2021/01/22 06:32:08;;;;;;;27.33;12.00;;;;;;;;;;5089917;28;20241;-75
2021/01/22 06:35:15;;;;;;;27.97;11.77;;;;;;;;;;5098024;28;20573;-75
2021/01/22 06:38:23;;;;;;;32.67;12.60;;;;;;;;;;5093524;28;20730;-75
2021/01/22 06:41:28;;;;;;;29.37;12.37;;;;;;;;;;5092766;28;20245;-75
2021/01/22 06:44:33;;;;;;;30.63;12.00;;;;;;;;;;5093798;28;20578;-73
2021/01/22 06:47:37;;;;;;;31.60;12.73;;;;;;;;;;5110500;28;20310;-73
2021/01/22 06:50:43;;;;;;;31.70;12.43;;;;;;;;;;5104091;28;20229;-73
2021/01/22 06:54:08;;;;;;;28.07;12.27;;;;;;;;;;5085340;28;20581;-73
2021/01/22 06:57:12;;;;;;;36.87;14.17;;;;;;;;;;5107078;28;20270;-72
2021/01/22 07:00:36;;;;;;;26.37;12.37;;;;;;;;;;5090732;28;20215;-73
2021/01/22 07:03:47;;;;;;;30.07;12.87;;;;;;;;;;5091725;28;20251;-72
2021/01/22 07:06:54;;;;;;;31.63;12.80;;;;;;;;;;5101808;28;20290;-72
2021/01/22 07:09:59;;;;;;;36.93;14.83;;;;;;;;;;5091704;28;20300;-73
2021/01/22 07:13:05;;;;;;;30.90;12.57;;;;;;;;;;5105663;28;20282;-73
2021/01/22 07:16:10;;;;;;;28.43;12.13;;;;;;;;;;5100536;28;20704;-73
2021/01/22 07:19:16;;;;;;;31.27;13.80;;;;;;;;;;5095808;28;20278;-75
2021/01/22 07:22:22;;;;;;;32.93;14.13;;;;;;;;;;5103264;28;20617;-75
2021/01/22 07:25:31;;;;;;;34.40;14.33;;;;;;;;;;5102575;28;20212;-74
2021/01/22 07:28:49;;;;;;;38.13;13.33;;;;;;;;;;5102863;28;20235;-74
2021/01/22 07:31:58;;;;;;;28.90;12.23;;;;;;;;;;5102584;28;20220;-75
2021/01/22 07:35:02;;;;;;;30.43;12.73;;;;;;;;;;5095839;28;20202;-74
2021/01/22 07:38:08;;;;;;;26.80;12.20;;;;;;;;;;5102510;28;20780;-74
2021/01/22 07:41:13;;;;;;;27.43;11.37;;;;;;;;;;5102480;28;20554;-73
2021/01/22 07:44:25;;;;;;;32.17;13.17;;;;;;;;;;5102216;28;20220;-73
2021/01/22 07:47:32;;;;;;;30.53;12.70;;;;;;;;;;5073696;28;20264;-73
2021/01/22 07:50:36;;;;;;;26.70;11.60;;;;;;;;;;5081895;28;20229;-73
2021/01/22 07:53:42;;;;;;;29.47;12.80;;;;;;;;;;5087108;28;20197;-74
2021/01/22 07:56:48;;;;;;;78.70;28.27;;;;;;;;;;5104407;28;20208;-76
2021/01/22 07:59:53;;;;;;;44.00;15.20;;;;;;;;;;5106859;28;20322;-75
2021/01/22 08:02:59;;;;;;;31.77;14.07;;;;;;;;;;5103031;28;20332;-73
2021/01/22 08:06:05;;;;;;;48.00;16.70;;;;;;;;;;5102481;28;20204;-74
2021/01/22 08:09:12;;;;;;;46.77;17.50;;;;;;;;;;5106338;28;20204;-74
2021/01/22 08:12:17;;;;;;;27.90;12.83;;;;;;;;;;5081585;28;20253;-73
2021/01/22 08:15:22;;;;;;;32.77;13.17;;;;;;;;;;5094334;28;20201;-75
2021/01/22 08:18:27;;;;;;;34.47;12.73;;;;;;;;;;5093771;28;20237;-74
2021/01/22 08:21:32;;;;;;;30.07;12.60;;;;;;;;;;5082709;28;20221;-76
2021/01/22 08:24:38;;;;;;;26.80;12.03;;;;;;;;;;5082667;28;20205;-75
2021/01/22 08:27:42;;;;;;;31.03;13.37;;;;;;;;;;5094680;28;20213;-75
2021/01/22 08:30:48;;;;;;;29.97;11.50;;;;;;;;;;5081402;28;20696;-75
2021/01/22 08:33:53;;;;;;;30.07;11.20;;;;;;;;;;5081446;28;20251;-75
2021/01/22 08:36:58;;;;;;;38.20;16.43;;;;;;;;;;5094112;28;20320;-75
2021/01/22 08:40:04;;;;;;;28.93;12.47;;;;;;;;;;5094291;28;20243;-75
2021/01/22 08:43:09;;;;;;;23.27;10.83;;;;;;;;;;5098516;27;20774;-75
2021/01/22 08:46:14;;;;;;;21.60;10.20;;;;;;;;;;5104087;27;20240;-75
2021/01/22 08:49:19;;;;;;;27.80;11.97;;;;;;;;;;5109894;28;20228;-75
2021/01/22 08:52:24;;;;;;;28.17;11.13;;;;;;;;;;5113006;28;20228;-75
2021/01/22 08:55:29;;;;;;;27.33;12.37;;;;;;;;;;5099763;28;20278;-74
2021/01/22 08:58:34;;;;;;;26.53;11.90;;;;;;;;;;5098641;28;20239;-74
2021/01/22 09:01:49;;;;;;;28.97;13.00;;;;;;;;;;5100685;28;20224;-73
2021/01/22 09:05:03;;;;;;;27.53;11.20;;;;;;;;;;5095256;28;20301;-74
2021/01/22 09:08:09;;;;;;;26.97;12.13;;;;;;;;;;5109537;27;20205;-73
2021/01/22 09:11:35;;;;;;;29.87;12.43;;;;;;;;;;5115752;28;20310;-74
2021/01/22 09:14:50;;;;;;;45.67;15.20;;;;;;;;;;5100322;28;20582;-73
2021/01/22 09:17:54;;;;;;;29.70;12.93;;;;;;;;;;5099945;28;20382;-73
2021/01/22 09:20:59;;;;;;;30.93;12.53;;;;;;;;;;5084051;28;20209;-73
2021/01/22 09:24:04;;;;;;;28.40;11.33;;;;;;;;;;5104618;28;20212;-75
2021/01/22 09:27:10;;;;;;;34.90;13.03;;;;;;;;;;5091909;28;20251;-75
2021/01/22 09:30:15;;;;;;;26.37;11.00;;;;;;;;;;5091692;28;20291;-75
2021/01/22 09:33:20;;;;;;;26.87;10.57;;;;;;;;;;5096978;28;20358;-73
2021/01/22 09:36:25;;;;;;;29.13;10.53;;;;;;;;;;5099263;28;20564;-73
2021/01/22 09:39:30;;;;;;;35.43;14.17;;;;;;;;;;5099022;28;20254;-73
2021/01/22 09:42:36;;;;;;;36.43;13.77;;;;;;;;;;5099060;28;20237;-72
2021/01/22 09:45:40;;;;;;;25.60;12.07;;;;;;;;;;5095568;28;20834;-73
2021/01/22 09:48:46;;;;;;;27.57;12.40;;;;;;;;;;5102920;28;20266;-72
2021/01/22 09:51:50;;;;;;;26.47;11.80;;;;;;;;;;5112147;27;20221;-73
2021/01/22 09:54:55;;;;;;;34.40;12.50;;;;;;;;;;5099087;28;20654;-73
2021/01/22 09:58:00;;;;;;;25.27;10.40;;;;;;;;;;5095110;28;20662;-74
2021/01/22 10:01:05;;;;;;;23.87;10.83;;;;;;;;;;5091482;28;20193;-74
2021/01/22 10:04:10;;;;;;;33.70;12.10;;;;;;;;;;5112446;28;20196;-73
2021/01/22 10:07:15;;;;;;;26.27;11.33;;;;;;;;;;5083576;28;20684;-74
2021/01/22 10:10:19;;;;;;;22.57;10.20;;;;;;;;;;5098644;28;20700;-74
2021/01/22 10:13:25;;;;;;;37.80;11.43;;;;;;;;;;5098384;28;20232;-73
2021/01/22 10:16:29;;;;;;;24.50;10.70;;;;;;;;;;5096107;28;20319;-73
2021/01/22 10:19:34;;;;;;;25.97;11.03;;;;;;;;;;5098003;28;20228;-73
2021/01/22 10:22:38;;;;;;;29.87;11.40;;;;;;;;;;5098044;28;20549;-73
2021/01/22 10:25:43;;;;;;;20.80;10.17;;;;;;;;;;5098516;28;20573;-73
2021/01/22 10:28:49;;;;;;;27.90;10.97;;;;;;;;;;5098456;28;20294;-76
2021/01/22 10:31:53;;;;;;;20.70;9.97;;;;;;;;;;5093100;28;20224;-75
2021/01/22 10:34:58;;;;;;;23.57;10.17;;;;;;;;;;5098703;28;20207;-72
2021/01/22 10:38:05;;;;;;;23.27;9.77;;;;;;;;;;5097262;28;20738;-74
2021/01/22 10:41:11;;;;;;;23.67;10.07;;;;;;;;;;5103210;28;20232;-72
2021/01/22 10:44:17;;;;;;;23.60;9.80;;;;;;;;;;5094968;28;20261;-74
2021/01/22 10:47:22;;;;;;;20.57;10.00;;;;;;;;;;5092434;28;20251;-73
2021/01/22 10:50:26;;;;;;;22.43;9.90;;;;;;;;;;5093785;28;20205;-73
2021/01/22 10:53:33;;;;;;;21.17;9.67;;;;;;;;;;5095062;28;20274;-73
2021/01/22 10:56:38;;;;;;;26.60;10.07;;;;;;;;;;5096386;28;20366;-72
2021/01/22 10:59:43;;;;;;;25.97;10.33;;;;;;;;;;5098251;28;20735;-72
2021/01/22 11:02:48;;;;;;;23.57;10.57;;;;;;;;;;5110266;28;20255;-73
2021/01/22 11:05:54;;;;;;;20.90;9.43;;;;;;;;;;5096248;28;20265;-74
2021/01/22 11:08:59;;;;;;;28.00;8.80;;;;;;;;;;5086795;28;20700;-73
2021/01/22 11:12:04;;;;;;;21.87;9.60;;;;;;;;;;5095500;28;20228;-73
2021/01/22 11:15:10;;;;;;;15.27;7.87;;;;;;;;;;5098018;28;20247;-73
2021/01/22 11:18:16;;;;;;;18.77;7.70;;;;;;;;;;5093447;28;20212;-73
2021/01/22 11:21:21;;;;;;;19.10;7.73;;;;;;;;;;5097501;28;20560;-73
2021/01/22 11:24:25;;;;;;;19.63;8.93;;;;;;;;;;5084947;28;20205;-73
2021/01/22 11:27:30;;;;;;;17.33;8.60;;;;;;;;;;5092137;28;20685;-74
2021/01/22 11:30:35;;;;;;;24.03;9.23;;;;;;;;;;5085706;28;20244;-75
2021/01/22 11:33:40;;;;;;;31.33;8.97;;;;;;;;;;5095157;28;20606;-74
2021/01/22 11:36:45;;;;;;;16.60;7.33;;;;;;;;;;5097421;28;20193;-73
2021/01/22 11:39:50;;;;;;;21.40;7.93;;;;;;;;;;5081371;28;20243;-74
2021/01/22 11:42:54;;;;;;;18.03;8.40;;;;;;;;;;5095614;28;20224;-75
2021/01/22 11:46:00;;;;;;;22.40;8.77;;;;;;;;;;5092852;28;20231;-74
2021/01/22 11:49:04;;;;;;;19.40;7.97;;;;;;;;;;5102296;28;20193;-75
2021/01/22 11:52:10;;;;;;;23.47;8.50;;;;;;;;;;5091820;28;20295;-74
2021/01/22 11:55:15;;;;;;;22.97;8.60;;;;;;;;;;5105806;28;20270;-74
2021/01/22 11:58:19;;;;;;;20.83;7.45;;;;;;;;;;5108205;27;20201;-72
2021/01/22 12:01:25;;;;;;;23.57;8.50;;;;;;;;;;5102121;28;20197;-72
2021/01/22 12:04:32;;;;;;;20.13;7.30;;;;;;;;;;5101694;28;20201;-72
2021/01/22 12:07:37;;;;;;;31.33;10.33;;;;;;;;;;5101222;28;20319;-73
2021/01/22 12:10:41;;;;;;;45.35;13.30;;;;;;;;;;5089757;28;20243;-73
2021/01/22 12:13:46;;;;;;;56.97;11.85;;;;;;;;;;5098336;28;20574;-72
2021/01/22 12:16:51;;;;;;;26.07;9.17;;;;;;;;;;5094541;28;20263;-73
2021/01/22 12:19:56;;;;;;;36.20;11.50;;;;;;;;;;5107978;28;20290;-73
2021/01/22 12:23:01;;;;;;;29.87;11.57;;;;;;;;;;5100765;28;20270;-73
2021/01/22 12:26:05;;;;;;;22.33;9.50;;;;;;;;;;5100691;28;20228;-73
2021/01/22 12:29:10;;;;;;;19.30;8.73;;;;;;;;;;5112959;28;20224;-74
2021/01/22 12:32:18;;;;;;;17.50;8.17;;;;;;;;;;5100245;28;20263;-75
2021/01/22 12:35:22;;;;;;;28.47;8.20;;;;;;;;;;5107532;28;20209;-78
2021/01/22 12:38:27;;;;;;;19.37;7.97;;;;;;;;;;5113771;28;20243;-73
2021/01/22 12:41:34;;;;;;;31.90;9.93;;;;;;;;;;5100977;28;20243;-74
2021/01/22 12:44:38;;;;;;;25.83;11.00;;;;;;;;;;5099868;28;20225;-72
2021/01/22 12:47:44;;;;;;;20.10;8.33;;;;;;;;;;5089834;28;20716;-73
2021/01/22 12:50:49;;;;;;;30.27;11.20;;;;;;;;;;5071551;28;20353;-72
2021/01/22 12:53:54;;;;;;;24.90;10.00;;;;;;;;;;5093290;28;20201;-73
2021/01/22 12:56:59;;;;;;;30.27;10.40;;;;;;;;;;5092271;28;20205;-74
2021/01/22 13:00:05;;;;;;;27.40;11.50;;;;;;;;;;5087927;28;20285;-72
2021/01/22 13:03:10;;;;;;;17.20;7.80;;;;;;;;;;5099828;28;20290;-72
2021/01/22 13:06:15;;;;;;;25.80;7.73;;;;;;;;;;5098332;28;20242;-72
2021/01/22 13:09:19;;;;;;;18.83;8.27;;;;;;;;;;5090061;28;20209;-74
2021/01/22 13:12:24;;;;;;;26.53;8.00;;;;;;;;;;5103808;28;20362;-73
2021/01/22 13:15:29;;;;;;;20.87;8.73;;;;;;;;;;5089257;28;20296;-74
2021/01/22 13:18:35;;;;;;;28.10;10.27;;;;;;;;;;5110519;28;20250;-73
2021/01/22 13:21:39;;;;;;;22.67;8.70;;;;;;;;;;5097130;28;20303;-74
2021/01/22 13:24:44;;;;;;;23.23;8.90;;;;;;;;;;5097614;28;20204;-75
2021/01/22 13:27:48;;;;;;;15.50;7.23;;;;;;;;;;5099652;28;20228;-75
2021/01/22 13:30:53;;;;;;;27.30;7.23;;;;;;;;;;5098744;28;20705;-73
2021/01/22 13:33:59;;;;;;;21.40;8.20;;;;;;;;;;5105692;28;20243;-73
2021/01/22 13:37:03;;;;;;;87.00;30.77;;;;;;;;;;5097846;27;20282;-73
2021/01/22 13:40:08;;;;;;;26.23;10.20;;;;;;;;;;5099055;28;20208;-73
2021/01/22 13:43:13;;;;;;;16.47;7.67;;;;;;;;;;5104683;27;20266;-73
2021/01/22 13:46:17;;;;;;;20.23;7.80;;;;;;;;;;5091573;28;20220;-74
2021/01/22 13:49:23;;;;;;;23.77;8.77;;;;;;;;;;5101896;27;20200;-72
2021/01/22 13:52:29;;;;;;;19.67;8.23;;;;;;;;;;5094497;28;20224;-73
2021/01/22 13:55:33;;;;;;;23.43;9.47;;;;;;;;;;5120693;28;20229;-75
2021/01/22 13:58:38;;;;;;;25.03;10.20;;;;;;;;;;5115814;28;20745;-75
2021/01/22 14:01:43;;;;;;;33.07;10.20;;;;;;;;;;5089774;28;20670;-75
2021/01/22 14:04:48;;;;;;;26.97;10.73;;;;;;;;;;5099242;28;20783;-75
2021/01/22 14:07:53;;;;;;;24.93;9.40;;;;;;;;;;5085201;28;20205;-74
2021/01/22 14:10:57;;;;;;;26.63;10.27;;;;;;;;;;5098559;28;20745;-74
2021/01/22 14:14:02;;;;;;;27.90;10.57;;;;;;;;;;5087795;28;20331;-74
2021/01/22 14:17:07;;;;;;;28.70;10.60;;;;;;;;;;5084739;28;20700;-73
2021/01/22 14:20:18;;;;;;;30.67;12.00;;;;;;;;;;5085434;28;20205;-73
2021/01/22 14:23:25;;;;;;;55.80;30.30;;;;;;;;;;5111121;28;20232;-73
2021/01/22 14:26:32;;;;;;;28.93;12.70;;;;;;;;;;5099510;28;20267;-73
2021/01/22 14:29:37;;;;;;;22.87;9.60;;;;;;;;;;5111739;28;20208;-73
2021/01/22 14:32:42;;;;;;;24.67;10.10;;;;;;;;;;5098997;28;20561;-73
2021/01/22 14:35:48;;;;;;;30.23;13.47;;;;;;;;;;5099028;28;20281;-73
2021/01/22 14:38:52;;;;;;;27.77;12.10;;;;;;;;;;5099643;28;20200;-72
2021/01/22 14:41:57;;;;;;;31.50;12.13;;;;;;;;;;5098613;28;20227;-72
2021/01/22 14:45:01;;;;;;;25.63;11.17;;;;;;;;;;5099025;28;20247;-72
2021/01/22 14:48:06;;;;;;;27.23;11.43;;;;;;;;;;5099004;28;20205;-72
2021/01/22 14:51:12;;;;;;;28.47;11.70;;;;;;;;;;5098748;28;20229;-73
2021/01/22 14:54:16;;;;;;;27.33;11.20;;;;;;;;;;5098632;28;20200;-72
2021/01/22 14:57:21;;;;;;;29.63;11.90;;;;;;;;;;5099414;28;20590;-73
2021/01/22 15:00:26;;;;;;;29.33;11.60;;;;;;;;;;5098882;28;20284;-72
2021/01/22 15:03:30;;;;;;;28.30;11.10;;;;;;;;;;5098480;28;20220;-73
2021/01/22 15:06:36;;;;;;;28.77;11.40;;;;;;;;;;5098725;28;20222;-73
2021/01/22 15:09:40;;;;;;;28.80;11.17;;;;;;;;;;5098767;28;20628;-72
2021/01/22 15:12:45;;;;;;;24.53;11.77;;;;;;;;;;5098898;28;20263;-73
2021/01/22 15:15:49;;;;;;;28.83;11.63;;;;;;;;;;5098774;28;20270;-73
2021/01/22 15:18:54;;;;;;;42.57;14.60;;;;;;;;;;5098926;28;20285;-72
2021/01/22 15:22:00;;;;;;;30.83;12.90;;;;;;;;;;5098916;28;20217;-72
2021/01/22 15:25:05;;;;;;;36.07;14.13;;;;;;;;;;5112742;28;20196;-72
2021/01/22 15:28:10;;;;;;;31.50;13.53;;;;;;;;;;5101821;28;20720;-72
2021/01/22 15:31:14;;;;;;;32.40;12.87;;;;;;;;;;5102476;28;20221;-73
2021/01/22 15:34:44;;;;;;;39.27;13.97;;;;;;;;;;5102755;28;20200;-72
2021/01/22 15:37:49;;;;;;;35.60;15.33;;;;;;;;;;5103933;28;20360;-74
2021/01/22 15:40:54;;;;;;;43.30;16.27;;;;;;;;;;5100299;28;20250;-74
2021/01/22 15:43:59;;;;;;;48.20;17.13;;;;;;;;;;5092256;28;20644;-74
2021/01/22 15:47:04;;;;;;;38.60;15.20;;;;;;;;;;5101106;28;20652;-74
2021/01/22 15:50:09;;;;;;;34.43;14.43;;;;;;;;;;5092647;28;20217;-72
2021/01/22 15:53:15;;;;;;;38.30;16.80;;;;;;;;;;5097108;28;20682;-73
2021/01/22 15:56:21;;;;;;;34.27;14.87;;;;;;;;;;5097182;28;20201;-74
2021/01/22 15:59:25;;;;;;;42.53;15.47;;;;;;;;;;5096613;28;20216;-73
2021/01/22 16:02:30;;;;;;;44.43;16.80;;;;;;;;;;5094073;28;20253;-73
2021/01/22 16:05:35;;;;;;;39.40;15.73;;;;;;;;;;5100187;28;20304;-73
2021/01/22 16:08:43;;;;;;;39.30;15.77;;;;;;;;;;5101336;28;20205;-73
2021/01/22 16:11:48;;;;;;;38.67;17.30;;;;;;;;;;5094053;28;20680;-73
2021/01/22 16:14:53;;;;;;;62.93;22.97;;;;;;;;;;5096866;28;20214;-73
2021/01/22 16:17:57;;;;;;;76.30;27.10;;;;;;;;;;5101226;28;20208;-73
2021/01/22 16:21:01;;;;;;;117.63;36.53;;;;;;;;;;5101377;28;20263;-74
2021/01/22 16:24:08;;;;;;;58.87;17.70;;;;;;;;;;5100868;28;20212;-74
2021/01/22 16:27:12;;;;;;;48.17;19.07;;;;;;;;;;5101008;28;20232;-73
2021/01/22 16:30:18;;;;;;;47.17;19.13;;;;;;;;;;5093545;28;20514;-73
2021/01/22 16:33:23;;;;;;;53.43;18.83;;;;;;;;;;5094904;28;20637;-74
2021/01/22 16:36:27;;;;;;;45.03;18.83;;;;;;;;;;5100065;28;20761;-74
2021/01/22 16:39:33;;;;;;;39.80;17.73;;;;;;;;;;5110056;28;20589;-72
2021/01/22 16:42:37;;;;;;;63.80;24.70;;;;;;;;;;5097478;28;20266;-73
2021/01/22 16:45:42;;;;;;;66.00;26.80;;;;;;;;;;5096554;28;20246;-72
2021/01/22 16:48:46;;;;;;;65.70;26.23;;;;;;;;;;5100208;28;20219;-73
2021/01/22 16:51:51;;;;;;;61.67;22.30;;;;;;;;;;5106726;28;20286;-73
2021/01/22 16:54:56;;;;;;;89.30;32.50;;;;;;;;;;5112860;28;20204;-73
2021/01/22 16:58:01;;;;;;;49.97;20.50;;;;;;;;;;5095359;28;20266;-74
2021/01/22 17:01:06;;;;;;;41.70;18.33;;;;;;;;;;5099078;28;20205;-73
2021/01/22 17:04:10;;;;;;;49.00;20.23;;;;;;;;;;5111648;28;20254;-73
2021/01/22 17:07:15;;;;;;;50.83;19.73;;;;;;;;;;5099347;28;20236;-73
2021/01/22 17:10:21;;;;;;;51.53;19.53;;;;;;;;;;5098378;28;20266;-74
2021/01/22 17:13:25;;;;;;;42.53;17.43;;;;;;;;;;5101289;27;20270;-73
2021/01/22 17:16:30;;;;;;;49.67;17.47;;;;;;;;;;5099121;27;20235;-74
2021/01/22 17:19:35;;;;;;;45.30;16.63;;;;;;;;;;5106669;27;20215;-74
2021/01/22 17:22:39;;;;;;;42.47;16.33;;;;;;;;;;5104551;27;20231;-74
2021/01/22 17:25:45;;;;;;;47.27;16.67;;;;;;;;;;5096419;28;20306;-74
2021/01/22 17:28:50;;;;;;;41.63;15.47;;;;;;;;;;5099606;28;20205;-74
2021/01/22 17:31:55;;;;;;;46.60;16.40;;;;;;;;;;5092204;28;20764;-74
2021/01/22 17:34:59;;;;;;;39.10;16.27;;;;;;;;;;5099011;28;20524;-74
2021/01/22 17:38:04;;;;;;;46.13;17.27;;;;;;;;;;5099643;28;20289;-74
2021/01/22 17:41:10;;;;;;;42.27;17.40;;;;;;;;;;5098038;28;20200;-75
2021/01/22 17:44:14;;;;;;;43.00;17.43;;;;;;;;;;5095423;27;20320;-75
2021/01/22 17:47:19;;;;;;;41.93;17.63;;;;;;;;;;5098815;27;20258;-74
2021/01/22 17:50:26;;;;;;;38.80;16.60;;;;;;;;;;5111660;28;20225;-74
2021/01/22 17:53:31;;;;;;;50.33;20.37;;;;;;;;;;5091464;28;20366;-74
2021/01/22 17:56:39;;;;;;;55.57;19.43;;;;;;;;;;5099636;28;20205;-75
2021/01/22 17:59:44;;;;;;;46.57;19.73;;;;;;;;;;5099715;28;20185;-75
2021/01/22 18:02:48;;;;;;;50.33;20.47;;;;;;;;;;5099249;28;20731;-75